createdAt,value
2022-10-02T00:00:34.241Z,60.17
2022-10-02T00:03:06.261Z,60.25
2022-10-02T00:05:36.331Z,60.27
2022-10-02T00:08:04.856Z,60.72
2022-10-02T00:10:34.120Z,60.83
2022-10-02T00:13:03.111Z,60.76
2022-10-02T00:15:32.113Z,60.76
2022-10-02T00:18:02.676Z,60.81
2022-10-02T00:20:35.236Z,60.76
2022-10-02T00:23:04.015Z,60.91
2022-10-02T00:25:34.457Z,60.80
2022-10-02T00:28:20.912Z,60.78
2022-10-02T00:31:04.080Z,60.71
2022-10-02T00:33:34.434Z,60.73
2022-10-02T00:36:09.531Z,60.61
2022-10-02T00:38:44.388Z,60.57
2022-10-02T00:41:32.800Z,60.88
2022-10-02T00:44:17.325Z,60.71
2022-10-02T00:46:48.230Z,60.76
2022-10-02T00:49:36.066Z,60.81
2022-10-02T00:52:25.435Z,60.94
2022-10-02T00:55:06.286Z,60.86
2022-10-02T00:57:42.016Z,60.91
2022-10-02T01:00:10.840Z,60.98
2022-10-02T01:03:04.082Z,60.85
2022-10-02T01:05:31.684Z,60.71
2022-10-02T01:08:00.805Z,60.99
2022-10-02T01:10:28.425Z,60.82
2022-10-02T01:12:56.462Z,60.87
2022-10-02T01:15:25.025Z,60.98
2022-10-02T01:17:52.869Z,60.88
2022-10-02T01:20:23.590Z,61.15
2022-10-02T01:22:54.540Z,61.18
2022-10-02T01:25:23.664Z,61.21
2022-10-02T01:27:51.539Z,61.26
2022-10-02T01:30:20.133Z,61.19
2022-10-02T01:32:50.153Z,61.08
2022-10-02T01:35:18.049Z,60.87
2022-10-02T01:37:45.589Z,60.79
2022-10-02T01:40:26.159Z,60.90
2022-10-02T01:42:53.770Z,61.18
2022-10-02T01:45:23.367Z,61.15
2022-10-02T01:47:52.674Z,61.19
2022-10-02T01:50:23.605Z,61.07
2022-10-02T01:52:54.404Z,60.97
2022-10-02T01:55:28.251Z,61.14
2022-10-02T01:58:01.018Z,61.07
2022-10-02T02:00:29.173Z,61.05
2022-10-02T02:02:59.260Z,61.14
2022-10-02T02:05:36.643Z,60.91
2022-10-02T02:08:08.403Z,60.89
2022-10-02T02:10:42.956Z,60.98
2022-10-02T02:13:12.600Z,61.25
2022-10-02T02:15:41.541Z,61.15
2022-10-02T02:18:12.127Z,61.47
2022-10-02T02:20:43.757Z,61.23
2022-10-02T02:23:19.082Z,61.67
2022-10-02T02:25:50.444Z,61.44
2022-10-02T02:28:19.610Z,61.41
2022-10-02T02:30:47.643Z,60.91
2022-10-02T02:33:17.972Z,60.97
2022-10-02T02:35:47.283Z,61.58
2022-10-02T02:38:17.528Z,61.46
2022-10-02T02:40:45.254Z,61.60
2022-10-02T02:43:16.154Z,61.48
2022-10-02T02:45:45.794Z,61.50
2022-10-02T02:48:15.773Z,61.70
2022-10-02T02:50:45.183Z,61.48
2022-10-02T02:53:13.972Z,61.56
2022-10-02T02:55:45.161Z,61.72
2022-10-02T02:58:16.145Z,61.41
2022-10-02T03:00:43.762Z,61.78
2022-10-02T03:03:11.619Z,61.73
2022-10-02T03:05:40.467Z,61.86
2022-10-02T03:08:19.210Z,61.96
2022-10-02T03:10:51.649Z,62.02
2022-10-02T03:13:29.307Z,61.51
2022-10-02T03:16:04.975Z,61.89
2022-10-02T03:18:51.053Z,61.50
2022-10-02T03:21:20.989Z,61.85
2022-10-02T03:23:58.735Z,61.83
2022-10-02T03:26:31.153Z,61.78
2022-10-02T03:29:00.656Z,61.73
2022-10-02T03:31:29.494Z,61.74
2022-10-02T03:33:57.721Z,61.76
2022-10-02T03:36:25.467Z,61.91
2022-10-02T03:39:12.511Z,61.59
2022-10-02T03:41:40.968Z,61.46
2022-10-02T03:44:10.044Z,61.76
2022-10-02T03:46:37.867Z,61.61
2022-10-02T03:49:05.889Z,61.63
2022-10-02T03:51:33.453Z,61.61
2022-10-02T03:54:01.154Z,61.83
2022-10-02T03:56:34.537Z,61.65
2022-10-02T03:59:02.694Z,61.60
2022-10-02T04:01:33.384Z,61.67
2022-10-02T04:04:03.094Z,61.48
2022-10-02T04:06:38.170Z,61.54
2022-10-02T04:09:07.593Z,61.72
2022-10-02T04:11:37.295Z,61.76
2022-10-02T04:14:07.046Z,62.09
2022-10-02T04:16:37.995Z,61.79
2022-10-02T04:19:08.457Z,62.04
2022-10-02T04:21:37.754Z,61.73
2022-10-02T04:24:10.522Z,61.84
2022-10-02T04:26:40.150Z,61.61
2022-10-02T04:29:12.921Z,61.81
2022-10-02T04:31:42.300Z,61.67
2022-10-02T04:34:11.413Z,61.79
2022-10-02T04:36:43.283Z,61.93
2022-10-02T04:39:49.887Z,61.45
2022-10-02T04:42:23.757Z,61.57
2022-10-02T04:44:59.249Z,61.59
2022-10-02T04:47:43.124Z,61.52
2022-10-02T04:50:18.734Z,61.76
2022-10-02T04:52:57.863Z,61.74
2022-10-02T04:55:40.510Z,62.04
2022-10-02T04:58:21.462Z,61.93
2022-10-02T05:00:50.469Z,62.11
2022-10-02T05:03:27.648Z,62.08
2022-10-02T05:06:01.015Z,61.69
2022-10-02T05:08:39.389Z,61.30
2022-10-02T05:11:13.870Z,61.36
2022-10-02T05:13:59.599Z,61.29
2022-10-02T05:19:04.573Z,61.23
2022-10-02T05:21:43.613Z,61.03
2022-10-02T05:24:23.198Z,61.25
2022-10-02T05:27:13.846Z,61.07
2022-10-02T05:29:58.974Z,61.15
2022-10-02T05:32:42.973Z,61.21
2022-10-02T05:35:20.547Z,61.18
2022-10-02T05:37:54.001Z,60.98
2022-10-02T05:40:25.100Z,61.21
2022-10-02T05:42:57.023Z,61.35
2022-10-02T05:45:27.598Z,61.46
2022-10-02T05:47:56.649Z,61.53
2022-10-02T05:50:27.345Z,61.83
2022-10-02T05:52:56.162Z,61.83
2022-10-02T05:55:25.687Z,61.99
2022-10-02T05:57:53.965Z,61.92
2022-10-02T06:00:27.223Z,62.16
2022-10-02T06:02:57.932Z,62.43
2022-10-02T06:05:28.736Z,62.39
2022-10-02T06:07:58.382Z,62.69
2022-10-02T06:10:28.060Z,62.66
2022-10-02T06:12:58.456Z,62.90
2022-10-02T06:15:27.802Z,63.16
2022-10-02T06:17:56.789Z,63.03
2022-10-02T06:20:26.868Z,62.99
2022-10-02T06:22:56.508Z,62.91
2022-10-02T06:25:26.436Z,63.11
2022-10-02T06:27:56.493Z,63.12
2022-10-02T06:30:24.094Z,62.93
2022-10-02T06:32:55.222Z,63.14
2022-10-02T06:35:33.240Z,63.27
2022-10-02T06:38:07.089Z,63.18
2022-10-02T06:40:46.659Z,63.01
2022-10-02T06:43:24.943Z,62.89
2022-10-02T06:45:58.602Z,62.98
2022-10-02T06:48:26.736Z,62.89
2022-10-02T06:50:59.044Z,62.86
2022-10-02T06:53:37.404Z,62.98
2022-10-02T06:56:11.691Z,62.91
2022-10-02T06:58:47.462Z,62.95
2022-10-02T07:01:20.838Z,63.10
2022-10-02T07:04:05.098Z,63.10
2022-10-02T07:06:40.208Z,63.00
2022-10-02T07:09:21.722Z,62.94
2022-10-02T07:11:52.940Z,62.97
2022-10-02T07:14:47.746Z,62.76
2022-10-02T07:17:31.139Z,62.54
2022-10-02T07:20:11.014Z,62.95
2022-10-02T07:22:49.265Z,62.83
2022-10-02T07:25:35.442Z,62.66
2022-10-02T07:28:07.233Z,62.53
2022-10-02T07:30:38.566Z,62.48
2022-10-02T07:33:09.208Z,62.82
2022-10-02T07:35:41.970Z,62.68
2022-10-02T07:38:19.902Z,62.53
2022-10-02T07:40:51.835Z,62.44
2022-10-02T07:43:33.492Z,62.06
2022-10-02T07:46:03.921Z,62.03
2022-10-02T07:48:38.791Z,61.93
2022-10-02T07:51:30.847Z,61.96
2022-10-02T07:54:03.948Z,61.75
2022-10-02T07:56:31.765Z,61.52
2022-10-02T07:59:01.060Z,61.41
2022-10-02T08:01:30.298Z,61.80
2022-10-02T08:03:59.753Z,61.22
2022-10-02T08:06:27.837Z,61.01
2022-10-02T08:08:57.676Z,60.71
2022-10-02T08:11:30.310Z,60.37
2022-10-02T08:13:59.192Z,60.02
2022-10-02T08:16:32.355Z,59.94
2022-10-02T08:19:01.415Z,59.96
2022-10-02T08:21:29.101Z,59.71
2022-10-02T08:23:59.272Z,59.70
2022-10-02T08:26:35.194Z,59.75
2022-10-02T08:29:06.478Z,59.57
2022-10-02T08:31:34.222Z,59.64
2022-10-02T08:34:02.298Z,59.47
2022-10-02T08:36:58.278Z,59.25
2022-10-02T08:39:46.138Z,58.99
2022-10-02T08:42:32.111Z,59.01
2022-10-02T08:45:29.074Z,59.01
2022-10-02T08:48:23.551Z,58.98
2022-10-02T08:51:09.363Z,58.88
2022-10-02T08:54:18.502Z,58.72
2022-10-02T08:57:01.549Z,58.91
2022-10-02T08:59:52.604Z,58.69
2022-10-02T09:03:07.904Z,58.75
2022-10-02T09:06:07.770Z,58.60
2022-10-02T09:08:59.935Z,58.46
2022-10-02T09:11:50.277Z,58.44
2022-10-02T09:14:30.951Z,58.54
2022-10-02T09:17:16.671Z,58.36
2022-10-02T09:19:50.684Z,58.48
2022-10-02T09:22:35.057Z,58.46
2022-10-02T09:25:14.136Z,58.50
2022-10-02T09:28:08.601Z,58.73
2022-10-02T09:30:47.808Z,58.41
2022-10-02T09:33:47.264Z,58.43
2022-10-02T09:36:52.023Z,58.60
2022-10-02T09:39:51.614Z,58.49
2022-10-02T09:42:46.697Z,58.89
2022-10-02T09:45:41.015Z,58.88
2022-10-02T09:48:51.283Z,58.68
2022-10-02T09:51:53.129Z,58.43
2022-10-02T09:54:57.966Z,57.91
2022-10-02T09:58:06.204Z,57.12
2022-10-02T10:00:49.753Z,56.97
2022-10-02T10:03:36.356Z,56.12
2022-10-02T10:06:29.466Z,54.82
2022-10-02T10:09:15.407Z,54.04
2022-10-02T10:12:26.617Z,53.36
2022-10-02T10:15:18.530Z,53.30
2022-10-02T10:18:21.152Z,53.61
2022-10-02T10:21:46.829Z,53.06
2022-10-02T10:24:33.950Z,53.36
2022-10-02T10:27:14.519Z,53.50
2022-10-02T10:30:22.269Z,53.15
2022-10-02T10:33:25.283Z,52.53
2022-10-02T10:36:33.556Z,52.24
2022-10-02T10:39:08.475Z,51.66
2022-10-02T10:41:49.489Z,51.47
2022-10-02T10:44:42.001Z,51.79
2022-10-02T10:47:34.659Z,51.78
2022-10-02T10:50:47.923Z,51.84
2022-10-02T10:53:39.097Z,52.43
2022-10-02T10:56:29.178Z,52.10
2022-10-02T10:59:25.265Z,51.99
2022-10-02T11:02:02.580Z,51.20
2022-10-02T11:04:54.439Z,49.21
2022-10-02T11:07:35.070Z,46.17
2022-10-02T11:10:12.074Z,44.39
2022-10-02T11:13:03.075Z,43.97
2022-10-02T11:15:59.198Z,40.91
2022-10-02T11:18:34.540Z,40.95
2022-10-02T11:21:32.637Z,40.04
2022-10-02T11:24:29.223Z,37.36
2022-10-02T11:27:05.754Z,35.95
2022-10-02T11:30:10.268Z,36.31
2022-10-02T11:32:54.312Z,38.11
2022-10-02T11:35:29.334Z,39.14
2022-10-02T11:38:36.963Z,39.16
2022-10-02T11:41:20.653Z,39.89
2022-10-02T11:44:09.567Z,40.61
2022-10-02T11:47:01.374Z,41.69
2022-10-02T11:49:37.297Z,42.65
2022-10-02T11:52:27.285Z,43.08
2022-10-02T11:55:00.755Z,41.25
2022-10-02T11:57:33.027Z,38.56
2022-10-02T12:00:14.758Z,35.61
2022-10-02T12:02:47.697Z,34.00
2022-10-02T12:05:25.468Z,33.41
2022-10-02T12:07:58.303Z,33.44
2022-10-02T12:10:46.906Z,34.05
2022-10-02T12:13:24.576Z,35.21
2022-10-02T12:15:56.238Z,35.60
2022-10-02T12:18:38.754Z,36.14
2022-10-02T12:21:31.700Z,36.32
2022-10-02T12:24:20.364Z,36.95
2022-10-02T12:27:00.205Z,37.54
2022-10-02T12:29:35.761Z,37.49
2022-10-02T12:32:08.129Z,37.49
2022-10-02T12:34:42.330Z,37.79
2022-10-02T12:37:12.199Z,38.08
2022-10-02T12:39:45.030Z,38.06
2022-10-02T12:42:26.682Z,37.68
2022-10-02T12:47:40.171Z,37.67
2022-10-02T12:50:24.273Z,37.29
2022-10-02T12:53:30.716Z,37.61
2022-10-02T12:56:34.258Z,37.18
2022-10-02T12:59:05.107Z,37.38
2022-10-02T13:02:42.889Z,36.69
2022-10-02T13:05:47.432Z,36.88
2022-10-02T13:08:37.866Z,37.22
2022-10-02T13:11:10.304Z,37.95
2022-10-02T13:13:55.255Z,38.51
2022-10-02T13:16:26.551Z,38.28
2022-10-02T13:19:10.323Z,38.54
2022-10-02T13:21:47.288Z,38.44
2022-10-02T13:24:28.458Z,38.30
2022-10-02T13:26:58.921Z,38.26
2022-10-02T13:29:40.487Z,38.93
2022-10-02T13:32:22.634Z,38.32
2022-10-02T13:34:58.641Z,39.07
2022-10-02T13:37:33.095Z,39.22
2022-10-02T13:40:21.393Z,39.26
2022-10-02T13:43:04.292Z,39.18
2022-10-02T13:45:34.341Z,38.87
2022-10-02T13:48:05.694Z,38.78
2022-10-02T13:50:45.093Z,39.45
2022-10-02T13:53:45.434Z,38.99
2022-10-02T13:56:21.575Z,39.73
2022-10-02T13:59:05.221Z,39.93
2022-10-02T14:01:36.943Z,39.47
2022-10-02T14:04:14.158Z,39.76
2022-10-02T14:06:43.697Z,39.84
2022-10-02T14:09:18.920Z,40.14
2022-10-02T14:11:56.316Z,40.20
2022-10-02T14:14:30.038Z,40.80
2022-10-02T14:17:03.128Z,40.79
2022-10-02T14:19:56.409Z,40.51
2022-10-02T14:22:33.762Z,40.98
2022-10-02T14:25:23.142Z,40.96
2022-10-02T14:28:23.035Z,40.61
2022-10-02T14:30:57.776Z,41.02
2022-10-02T14:33:30.896Z,41.04
2022-10-02T14:36:01.126Z,41.34
2022-10-02T14:38:35.347Z,41.75
2022-10-02T14:41:10.771Z,41.51
2022-10-02T14:43:47.157Z,41.57
2022-10-02T14:46:39.314Z,41.44
2022-10-02T14:49:30.403Z,41.35
2022-10-02T14:52:05.812Z,41.24
2022-10-02T14:54:41.832Z,40.83
2022-10-02T14:57:21.167Z,41.62
2022-10-02T15:00:13.648Z,41.20
2022-10-02T15:03:07.706Z,41.86
2022-10-02T15:05:41.850Z,41.93
2022-10-02T15:08:13.757Z,41.36
2022-10-02T15:10:42.371Z,41.16
2022-10-02T15:13:13.467Z,41.16
2022-10-02T15:15:42.323Z,41.15
2022-10-02T15:18:20.132Z,41.29
2022-10-02T15:20:59.329Z,41.59
2022-10-02T15:23:44.186Z,41.89
2022-10-02T15:26:34.033Z,42.11
2022-10-02T15:29:10.913Z,42.46
2022-10-02T15:31:41.201Z,42.85
2022-10-02T15:34:15.788Z,43.37
2022-10-02T15:36:50.129Z,43.75
2022-10-02T15:39:30.878Z,43.98
2022-10-02T15:42:04.828Z,44.41
2022-10-02T15:44:58.564Z,44.73
2022-10-02T15:47:42.872Z,45.15
2022-10-02T15:50:18.577Z,45.26
2022-10-02T15:52:51.135Z,45.71
2022-10-02T15:55:21.674Z,45.90
2022-10-02T15:58:14.041Z,46.12
2022-10-02T16:01:01.644Z,46.51
2022-10-02T16:03:32.822Z,46.51
2022-10-02T16:06:02.069Z,47.00
2022-10-02T16:08:45.153Z,47.23
2022-10-02T16:11:24.815Z,47.51
2022-10-02T16:13:54.239Z,47.55
2022-10-02T16:16:47.356Z,47.65
2022-10-02T16:19:19.108Z,48.02
2022-10-02T16:21:55.228Z,48.07
2022-10-02T16:24:39.437Z,47.94
2022-10-02T16:27:23.249Z,48.28
2022-10-02T16:30:02.355Z,48.64
2022-10-02T16:32:34.269Z,49.06
2022-10-02T16:35:17.622Z,48.99
2022-10-02T16:37:46.609Z,49.25
2022-10-02T16:40:26.793Z,49.49
2022-10-02T16:43:14.240Z,49.67
2022-10-02T16:45:54.243Z,49.86
2022-10-02T16:48:24.445Z,50.02
2022-10-02T16:51:11.535Z,50.13
2022-10-02T16:53:42.723Z,50.55
2022-10-02T16:56:12.301Z,50.72
2022-10-02T16:58:43.916Z,50.94
2022-10-02T17:01:23.694Z,51.01
2022-10-02T17:04:23.482Z,51.01
2022-10-02T17:06:53.466Z,51.32
2022-10-02T17:09:23.784Z,51.60
2022-10-02T17:11:53.320Z,51.95
2022-10-02T17:14:23.120Z,52.14
2022-10-02T17:16:55.660Z,52.40
2022-10-02T17:19:27.151Z,52.60
2022-10-02T17:21:56.385Z,52.61
2022-10-02T17:24:32.359Z,53.12
2022-10-02T17:27:08.679Z,53.21
2022-10-02T17:29:39.256Z,53.21
2022-10-02T17:32:09.321Z,53.41
2022-10-02T17:34:46.397Z,53.06
2022-10-02T17:37:44.755Z,53.22
2022-10-02T17:40:13.930Z,53.07
2022-10-02T17:45:29.017Z,53.48
2022-10-02T17:48:21.834Z,53.34
2022-10-02T17:51:31.020Z,53.35
2022-10-02T17:54:23.405Z,53.54
2022-10-02T17:57:17.794Z,53.46
2022-10-02T18:00:03.520Z,53.63
2022-10-02T18:03:05.266Z,53.47
2022-10-02T18:05:38.002Z,53.57
2022-10-02T18:08:18.054Z,53.53
2022-10-02T18:10:49.887Z,53.76
2022-10-02T18:13:23.553Z,53.83
2022-10-02T18:16:09.175Z,53.48
2022-10-02T18:18:39.907Z,53.93
2022-10-02T18:21:24.071Z,53.78
2022-10-02T18:24:02.747Z,53.61
2022-10-02T18:26:35.316Z,53.84
2022-10-02T18:29:26.844Z,53.51
2022-10-02T18:32:08.689Z,53.55
2022-10-02T18:34:45.695Z,53.95
2022-10-02T18:37:24.924Z,54.08
2022-10-02T18:40:04.831Z,54.33
2022-10-02T18:42:52.668Z,54.42
2022-10-02T18:45:29.397Z,54.55
2022-10-02T18:50:40.491Z,54.61
2022-10-02T18:53:21.672Z,54.69
2022-10-02T18:56:03.571Z,54.18
2022-10-02T18:58:52.601Z,54.77
2022-10-02T19:01:42.659Z,55.01
2022-10-02T19:04:22.995Z,54.96
2022-10-02T19:06:52.227Z,55.21
2022-10-02T19:09:23.101Z,55.18
2022-10-02T19:11:56.736Z,55.30
2022-10-02T19:14:30.049Z,55.27
2022-10-02T19:16:58.845Z,55.42
2022-10-02T19:19:27.827Z,55.67
2022-10-02T19:21:59.281Z,55.72
2022-10-02T19:24:28.328Z,55.85
2022-10-02T19:26:59.539Z,55.71
2022-10-02T19:29:30.491Z,56.10
2022-10-02T19:31:59.630Z,55.98
2022-10-02T19:34:28.784Z,56.16
2022-10-02T19:36:58.773Z,56.23
2022-10-02T19:39:30.513Z,56.42
2022-10-02T19:42:03.025Z,56.53
2022-10-02T19:44:32.846Z,56.44
2022-10-02T19:47:02.293Z,56.75
2022-10-02T19:49:32.204Z,56.45
2022-10-02T19:51:59.786Z,57.00
2022-10-02T19:54:28.486Z,56.95
2022-10-02T19:56:57.821Z,57.34
2022-10-02T19:59:28.703Z,57.25
2022-10-02T20:01:58.025Z,56.95
2022-10-02T20:04:26.949Z,57.18
2022-10-02T20:06:56.558Z,57.42
2022-10-02T20:09:27.277Z,57.36
2022-10-02T20:11:56.004Z,57.19
2022-10-02T20:14:25.105Z,57.24
2022-10-02T20:17:16.855Z,57.86
2022-10-02T20:19:46.759Z,58.12
2022-10-02T20:22:19.163Z,57.88
2022-10-02T20:24:50.588Z,57.94
2022-10-02T20:27:20.477Z,58.02
2022-10-02T20:29:50.335Z,58.05
2022-10-02T20:32:21.707Z,58.38
2022-10-02T20:34:53.410Z,58.48
2022-10-02T20:37:23.106Z,58.55
2022-10-02T20:39:55.191Z,58.19
2022-10-02T20:42:27.249Z,58.20
2022-10-02T20:44:54.974Z,58.17
2022-10-02T20:47:50.279Z,58.35
2022-10-02T20:50:40.409Z,58.31
2022-10-02T20:53:31.016Z,58.01
2022-10-02T20:56:00.715Z,58.55
2022-10-02T20:58:36.029Z,58.69
2022-10-02T21:01:13.401Z,58.15
2022-10-02T21:03:55.576Z,58.66
2022-10-02T21:06:39.199Z,58.30
2022-10-02T21:09:47.777Z,58.69
2022-10-02T21:12:33.460Z,58.88
2022-10-02T21:15:41.292Z,58.31
2022-10-02T21:18:50.733Z,58.91
2022-10-02T21:21:40.370Z,58.84
2022-10-02T21:24:21.053Z,58.92
2022-10-02T21:27:08.154Z,58.76
2022-10-02T21:29:53.941Z,58.95
2022-10-02T21:32:31.807Z,59.24
2022-10-02T21:35:16.827Z,59.41
2022-10-02T21:37:58.420Z,59.26
2022-10-02T21:40:56.122Z,59.33
2022-10-02T21:44:05.753Z,59.17
2022-10-02T21:46:54.683Z,59.49
2022-10-02T21:49:42.839Z,59.77
2022-10-02T21:52:58.675Z,59.44
2022-10-02T21:55:41.294Z,59.35
2022-10-02T21:58:39.593Z,59.93
2022-10-02T22:01:27.836Z,60.33
2022-10-02T22:04:19.865Z,59.85
2022-10-02T22:06:54.505Z,60.00
2022-10-02T22:09:32.889Z,59.95
2022-10-02T22:12:11.587Z,60.16
2022-10-02T22:14:40.486Z,60.19
2022-10-02T22:17:13.969Z,60.43
2022-10-02T22:19:51.712Z,60.03
2022-10-02T22:22:25.432Z,60.64
2022-10-02T22:25:02.594Z,60.49
2022-10-02T22:27:47.480Z,60.24
2022-10-02T22:30:23.877Z,60.60
2022-10-02T22:33:13.058Z,60.19
2022-10-02T22:35:52.706Z,60.84
2022-10-02T22:38:22.569Z,60.57
2022-10-02T22:40:52.361Z,60.40
2022-10-02T22:43:25.592Z,60.52
2022-10-02T22:45:55.684Z,60.65
2022-10-02T22:48:27.904Z,60.43
2022-10-02T22:50:56.734Z,60.31
2022-10-02T22:53:26.924Z,60.49
2022-10-02T22:55:55.350Z,60.74
2022-10-02T22:58:30.268Z,60.77
2022-10-02T23:01:01.939Z,61.37
2022-10-02T23:03:37.464Z,61.09
2022-10-02T23:06:06.049Z,60.72
2022-10-02T23:08:35.990Z,61.04
2022-10-02T23:11:08.318Z,61.01
2022-10-02T23:13:38.626Z,60.61
2022-10-02T23:16:07.619Z,60.71
2022-10-02T23:18:39.557Z,61.23
2022-10-02T23:21:23.951Z,60.68
2022-10-02T23:23:55.842Z,60.83
2022-10-02T23:26:29.033Z,60.75
2022-10-02T23:29:06.571Z,60.86
2022-10-02T23:31:35.451Z,61.02
2022-10-02T23:34:12.545Z,60.93
2022-10-02T23:36:45.909Z,61.06
2022-10-02T23:39:15.677Z,60.78
2022-10-02T23:41:47.830Z,60.81
2022-10-02T23:44:23.200Z,61.05
2022-10-02T23:47:00.505Z,61.36
2022-10-02T23:49:32.756Z,61.30
2022-10-02T23:52:06.607Z,61.27
2022-10-02T23:54:44.446Z,61.25
2022-10-02T23:57:36.051Z,61.20
